sensor_id;sensor_type;location;lat;lon;timestamp;P1;durP1;ratioP1;P2;durP2;ratioP2
75129;SDS011;63703;44.716;37.846;2023-02-17T00:00:06;15.30;;;8.73;;
75129;SDS011;63703;44.716;37.846;2023-02-17T00:02:34;11.70;;;10.60;;
75129;SDS011;63703;44.716;37.846;2023-02-17T00:05:00;10.40;;;9.25;;
75129;SDS011;63703;44.716;37.846;2023-02-17T00:07:26;11.20;;;8.45;;
75129;SDS011;63703;44.716;37.846;2023-02-17T00:09:58;8.05;;;6.82;;
75129;SDS011;63703;44.716;37.846;2023-02-17T00:12:24;13.88;;;8.68;;
75129;SDS011;63703;44.716;37.846;2023-02-17T00:14:51;9.95;;;7.90;;
75129;SDS011;63703;44.716;37.846;2023-02-17T00:17:17;12.13;;;6.30;;
75129;SDS011;63703;44.716;37.846;2023-02-17T00:19:43;8.98;;;6.57;;
75129;SDS011;63703;44.716;37.846;2023-02-17T00:22:09;6.90;;;6.22;;
75129;SDS011;63703;44.716;37.846;2023-02-17T00:24:38;10.05;;;9.05;;
75129;SDS011;63703;44.716;37.846;2023-02-17T00:27:05;11.57;;;10.38;;
75129;SDS011;63703;44.716;37.846;2023-02-17T00:29:31;10.23;;;8.82;;
75129;SDS011;63703;44.716;37.846;2023-02-17T00:31:58;6.47;;;5.70;;
75129;SDS011;63703;44.716;37.846;2023-02-17T00:34:23;8.50;;;7.80;;
75129;SDS011;63703;44.716;37.846;2023-02-17T00:36:50;9.93;;;9.13;;
75129;SDS011;63703;44.716;37.846;2023-02-17T00:39:16;8.98;;;8.13;;
75129;SDS011;63703;44.716;37.846;2023-02-17T00:41:42;9.00;;;7.40;;
75129;SDS011;63703;44.716;37.846;2023-02-17T00:44:13;9.50;;;7.95;;
75129;SDS011;63703;44.716;37.846;2023-02-17T00:46:44;11.75;;;7.30;;
75129;SDS011;63703;44.716;37.846;2023-02-17T00:49:16;7.88;;;7.25;;
75129;SDS011;63703;44.716;37.846;2023-02-17T00:51:44;9.45;;;8.52;;
75129;SDS011;63703;44.716;37.846;2023-02-17T00:54:10;8.77;;;6.88;;
75129;SDS011;63703;44.716;37.846;2023-02-17T00:56:37;6.90;;;6.30;;
75129;SDS011;63703;44.716;37.846;2023-02-17T00:59:03;7.40;;;6.70;;
75129;SDS011;63703;44.716;37.846;2023-02-17T01:01:30;8.13;;;7.35;;
75129;SDS011;63703;44.716;37.846;2023-02-17T01:03:57;9.02;;;8.20;;
75129;SDS011;63703;44.716;37.846;2023-02-17T01:06:24;7.25;;;6.60;;
75129;SDS011;63703;44.716;37.846;2023-02-17T01:08:52;7.68;;;6.97;;
75129;SDS011;63703;44.716;37.846;2023-02-17T01:11:20;5.97;;;5.15;;
75129;SDS011;63703;44.716;37.846;2023-02-17T01:13:49;7.20;;;6.60;;
75129;SDS011;63703;44.716;37.846;2023-02-17T01:16:37;5.13;;;3.70;;
75129;SDS011;63703;44.716;37.846;2023-02-17T01:19:13;7.68;;;7.03;;
75129;SDS011;63703;44.716;37.846;2023-02-17T01:21:40;8.48;;;7.28;;
75129;SDS011;63703;44.716;37.846;2023-02-17T01:24:09;6.32;;;5.82;;
75129;SDS011;63703;44.716;37.846;2023-02-17T01:26:36;9.55;;;8.77;;
75129;SDS011;63703;44.716;37.846;2023-02-17T01:29:04;6.75;;;5.93;;
75129;SDS011;63703;44.716;37.846;2023-02-17T01:31:31;6.60;;;6.05;;
75129;SDS011;63703;44.716;37.846;2023-02-17T01:33:58;7.72;;;7.03;;
75129;SDS011;63703;44.716;37.846;2023-02-17T01:36:25;6.97;;;6.10;;
75129;SDS011;63703;44.716;37.846;2023-02-17T01:38:51;6.95;;;6.25;;
75129;SDS011;63703;44.716;37.846;2023-02-17T01:41:18;6.40;;;5.78;;
75129;SDS011;63703;44.716;37.846;2023-02-17T01:44:03;6.85;;;5.60;;
75129;SDS011;63703;44.716;37.846;2023-02-17T01:46:32;7.15;;;6.43;;
75129;SDS011;63703;44.716;37.846;2023-02-17T01:48:59;6.13;;;5.60;;
75129;SDS011;63703;44.716;37.846;2023-02-17T01:51:27;5.07;;;4.65;;
75129;SDS011;63703;44.716;37.846;2023-02-17T01:54:41;7.85;;;7.15;;
75129;SDS011;63703;44.716;37.846;2023-02-17T01:56:58;7.55;;;6.78;;
75129;SDS011;63703;44.716;37.846;2023-02-17T01:59:26;8.80;;;6.68;;
75129;SDS011;63703;44.716;37.846;2023-02-17T02:01:56;4.07;;;3.60;;
75129;SDS011;63703;44.716;37.846;2023-02-17T02:04:25;7.57;;;6.90;;
75129;SDS011;63703;44.716;37.846;2023-02-17T02:06:54;8.95;;;8.15;;
75129;SDS011;63703;44.716;37.846;2023-02-17T02:09:21;8.50;;;5.43;;
75129;SDS011;63703;44.716;37.846;2023-02-17T02:14:18;8.95;;;8.05;;
75129;SDS011;63703;44.716;37.846;2023-02-17T02:33:21;11.65;;;6.10;;
75129;SDS011;63703;44.716;37.846;2023-02-17T02:36:38;5.95;;;3.47;;
75129;SDS011;63703;44.716;37.846;2023-02-17T02:38:58;9.10;;;8.40;;
75129;SDS011;63703;44.716;37.846;2023-02-17T02:41:41;7.50;;;6.90;;
75129;SDS011;63703;44.716;37.846;2023-02-17T02:44:13;7.97;;;7.28;;
75129;SDS011;63703;44.716;37.846;2023-02-17T02:46:41;7.15;;;6.18;;
75129;SDS011;63703;44.716;37.846;2023-02-17T02:49:08;6.03;;;5.50;;
75129;SDS011;63703;44.716;37.846;2023-02-17T02:51:53;8.68;;;7.55;;
75129;SDS011;63703;44.716;37.846;2023-02-17T02:54:56;7.15;;;6.45;;
75129;SDS011;63703;44.716;37.846;2023-02-17T03:09:01;5.78;;;3.08;;
75129;SDS011;63703;44.716;37.846;2023-02-17T03:11:27;8.93;;;6.30;;
75129;SDS011;63703;44.716;37.846;2023-02-17T03:14:05;6.97;;;6.25;;
75129;SDS011;63703;44.716;37.846;2023-02-17T03:16:33;6.43;;;5.82;;
75129;SDS011;63703;44.716;37.846;2023-02-17T03:19:00;3.45;;;1.95;;
75129;SDS011;63703;44.716;37.846;2023-02-17T03:21:34;8.38;;;7.47;;
75129;SDS011;63703;44.716;37.846;2023-02-17T03:26:31;6.28;;;5.68;;
75129;SDS011;63703;44.716;37.846;2023-02-17T03:28:57;7.32;;;5.82;;
75129;SDS011;63703;44.716;37.846;2023-02-17T03:31:23;6.45;;;5.90;;
75129;SDS011;63703;44.716;37.846;2023-02-17T03:33:49;4.32;;;2.72;;
75129;SDS011;63703;44.716;37.846;2023-02-17T03:36:15;11.85;;;6.43;;
75129;SDS011;63703;44.716;37.846;2023-02-17T03:38:41;8.10;;;5.25;;
75129;SDS011;63703;44.716;37.846;2023-02-17T03:41:07;7.05;;;6.43;;
75129;SDS011;63703;44.716;37.846;2023-02-17T03:43:33;7.00;;;5.57;;
75129;SDS011;63703;44.716;37.846;2023-02-17T03:45:59;7.32;;;6.00;;
75129;SDS011;63703;44.716;37.846;2023-02-17T03:48:25;6.93;;;6.20;;
75129;SDS011;63703;44.716;37.846;2023-02-17T03:50:51;6.90;;;6.40;;
75129;SDS011;63703;44.716;37.846;2023-02-17T03:53:17;7.55;;;6.85;;
75129;SDS011;63703;44.716;37.846;2023-02-17T03:55:43;6.75;;;6.15;;
75129;SDS011;63703;44.716;37.846;2023-02-17T03:58:09;6.95;;;6.32;;
75129;SDS011;63703;44.716;37.846;2023-02-17T04:00:35;7.07;;;6.43;;
75129;SDS011;63703;44.716;37.846;2023-02-17T04:03:01;8.50;;;7.63;;
75129;SDS011;63703;44.716;37.846;2023-02-17T04:05:27;6.63;;;6.10;;
75129;SDS011;63703;44.716;37.846;2023-02-17T04:07:53;6.63;;;6.05;;
75129;SDS011;63703;44.716;37.846;2023-02-17T04:10:18;6.65;;;5.95;;
75129;SDS011;63703;44.716;37.846;2023-02-17T04:12:44;4.68;;;3.45;;
75129;SDS011;63703;44.716;37.846;2023-02-17T04:15:10;8.13;;;6.07;;
75129;SDS011;63703;44.716;37.846;2023-02-17T04:17:36;6.00;;;4.70;;
75129;SDS011;63703;44.716;37.846;2023-02-17T04:20:03;7.45;;;6.72;;
75129;SDS011;63703;44.716;37.846;2023-02-17T04:22:30;7.80;;;7.00;;
75129;SDS011;63703;44.716;37.846;2023-02-17T04:24:56;7.25;;;5.72;;
75129;SDS011;63703;44.716;37.846;2023-02-17T04:27:22;6.32;;;5.82;;
75129;SDS011;63703;44.716;37.846;2023-02-17T04:29:48;8.20;;;6.25;;
75129;SDS011;63703;44.716;37.846;2023-02-17T04:32:15;6.93;;;6.20;;
75129;SDS011;63703;44.716;37.846;2023-02-17T04:34:41;7.65;;;6.45;;
75129;SDS011;63703;44.716;37.846;2023-02-17T04:37:07;7.10;;;6.50;;
75129;SDS011;63703;44.716;37.846;2023-02-17T04:39:33;9.88;;;6.18;;
75129;SDS011;63703;44.716;37.846;2023-02-17T04:41:59;9.57;;;6.72;;
75129;SDS011;63703;44.716;37.846;2023-02-17T04:44:25;6.10;;;5.50;;
75129;SDS011;63703;44.716;37.846;2023-02-17T04:46:51;8.07;;;6.90;;
75129;SDS011;63703;44.716;37.846;2023-02-17T04:49:17;9.32;;;7.20;;
75129;SDS011;63703;44.716;37.846;2023-02-17T04:51:42;8.80;;;6.95;;
75129;SDS011;63703;44.716;37.846;2023-02-17T04:54:08;8.57;;;7.40;;
75129;SDS011;63703;44.716;37.846;2023-02-17T04:56:34;7.40;;;6.70;;
75129;SDS011;63703;44.716;37.846;2023-02-17T04:59:00;5.90;;;5.40;;
75129;SDS011;63703;44.716;37.846;2023-02-17T05:01:26;5.68;;;5.07;;
75129;SDS011;63703;44.716;37.846;2023-02-17T05:03:52;7.60;;;5.90;;
75129;SDS011;63703;44.716;37.846;2023-02-17T05:06:18;12.10;;;5.75;;
75129;SDS011;63703;44.716;37.846;2023-02-17T05:08:44;6.63;;;3.08;;
75129;SDS011;63703;44.716;37.846;2023-02-17T05:11:12;5.70;;;4.93;;
75129;SDS011;63703;44.716;37.846;2023-02-17T05:13:38;8.95;;;5.63;;
75129;SDS011;63703;44.716;37.846;2023-02-17T05:16:04;6.25;;;5.63;;
75129;SDS011;63703;44.716;37.846;2023-02-17T05:18:30;6.15;;;3.28;;
75129;SDS011;63703;44.716;37.846;2023-02-17T05:20:56;9.30;;;5.40;;
75129;SDS011;63703;44.716;37.846;2023-02-17T05:23:22;7.13;;;5.50;;
75129;SDS011;63703;44.716;37.846;2023-02-17T05:25:48;7.53;;;6.32;;
75129;SDS011;63703;44.716;37.846;2023-02-17T05:28:14;3.92;;;2.33;;
75129;SDS011;63703;44.716;37.846;2023-02-17T05:30:40;8.30;;;7.50;;
75129;SDS011;63703;44.716;37.846;2023-02-17T05:33:06;7.90;;;6.07;;
75129;SDS011;63703;44.716;37.846;2023-02-17T05:35:33;4.78;;;2.58;;
75129;SDS011;63703;44.716;37.846;2023-02-17T05:37:59;7.30;;;6.45;;
75129;SDS011;63703;44.716;37.846;2023-02-17T05:40:25;6.32;;;5.70;;
75129;SDS011;63703;44.716;37.846;2023-02-17T05:42:51;6.15;;;5.63;;
75129;SDS011;63703;44.716;37.846;2023-02-17T05:45:17;5.93;;;5.32;;
75129;SDS011;63703;44.716;37.846;2023-02-17T05:47:43;6.10;;;5.60;;
75129;SDS011;63703;44.716;37.846;2023-02-17T05:50:09;6.20;;;5.60;;
75129;SDS011;63703;44.716;37.846;2023-02-17T05:52:35;7.90;;;4.82;;
75129;SDS011;63703;44.716;37.846;2023-02-17T05:55:01;5.75;;;5.13;;
75129;SDS011;63703;44.716;37.846;2023-02-17T05:57:29;5.90;;;5.22;;
75129;SDS011;63703;44.716;37.846;2023-02-17T05:59:55;5.68;;;5.10;;
75129;SDS011;63703;44.716;37.846;2023-02-17T06:02:21;7.47;;;5.75;;
75129;SDS011;63703;44.716;37.846;2023-02-17T06:04:47;6.88;;;4.97;;
75129;SDS011;63703;44.716;37.846;2023-02-17T06:07:13;6.10;;;5.13;;
75129;SDS011;63703;44.716;37.846;2023-02-17T06:09:39;5.55;;;4.63;;
75129;SDS011;63703;44.716;37.846;2023-02-17T06:12:05;5.38;;;4.93;;
75129;SDS011;63703;44.716;37.846;2023-02-17T06:14:30;4.68;;;4.10;;
75129;SDS011;63703;44.716;37.846;2023-02-17T06:16:56;5.90;;;5.40;;
75129;SDS011;63703;44.716;37.846;2023-02-17T06:19:24;5.25;;;4.75;;
75129;SDS011;63703;44.716;37.846;2023-02-17T06:21:50;6.20;;;5.60;;
75129;SDS011;63703;44.716;37.846;2023-02-17T06:24:16;5.85;;;5.22;;
75129;SDS011;63703;44.716;37.846;2023-02-17T06:26:42;6.88;;;5.30;;
75129;SDS011;63703;44.716;37.846;2023-02-17T06:29:08;5.93;;;4.85;;
75129;SDS011;63703;44.716;37.846;2023-02-17T06:31:34;5.05;;;4.60;;
75129;SDS011;63703;44.716;37.846;2023-02-17T06:34:00;5.18;;;4.75;;
75129;SDS011;63703;44.716;37.846;2023-02-17T06:36:26;5.85;;;5.30;;
75129;SDS011;63703;44.716;37.846;2023-02-17T06:38:52;7.10;;;6.50;;
75129;SDS011;63703;44.716;37.846;2023-02-17T06:41:18;5.05;;;4.55;;
75129;SDS011;63703;44.716;37.846;2023-02-17T06:43:44;4.43;;;4.03;;
75129;SDS011;63703;44.716;37.846;2023-02-17T06:46:10;6.43;;;5.93;;
75129;SDS011;63703;44.716;37.846;2023-02-17T06:48:36;6.15;;;5.60;;
75129;SDS011;63703;44.716;37.846;2023-02-17T06:51:02;4.70;;;2.55;;
75129;SDS011;63703;44.716;37.846;2023-02-17T06:53:28;4.88;;;4.35;;
75129;SDS011;63703;44.716;37.846;2023-02-17T06:55:53;4.70;;;4.25;;
75129;SDS011;63703;44.716;37.846;2023-02-17T06:58:20;4.70;;;4.10;;
75129;SDS011;63703;44.716;37.846;2023-02-17T07:00:46;5.45;;;5.03;;
75129;SDS011;63703;44.716;37.846;2023-02-17T07:03:12;5.18;;;4.78;;
75129;SDS011;63703;44.716;37.846;2023-02-17T07:05:38;5.85;;;5.40;;
75129;SDS011;63703;44.716;37.846;2023-02-17T07:08:04;6.15;;;5.57;;
75129;SDS011;63703;44.716;37.846;2023-02-17T07:10:31;6.35;;;4.35;;
75129;SDS011;63703;44.716;37.846;2023-02-17T07:12:57;6.07;;;5.57;;
75129;SDS011;63703;44.716;37.846;2023-02-17T07:15:23;5.90;;;5.40;;
75129;SDS011;63703;44.716;37.846;2023-02-17T07:17:49;9.85;;;7.47;;
75129;SDS011;63703;44.716;37.846;2023-02-17T07:20:15;6.18;;;5.57;;
75129;SDS011;63703;44.716;37.846;2023-02-17T07:22:41;5.75;;;5.13;;
75129;SDS011;63703;44.716;37.846;2023-02-17T07:25:07;7.05;;;4.97;;
75129;SDS011;63703;44.716;37.846;2023-02-17T07:27:34;3.95;;;3.65;;
75129;SDS011;63703;44.716;37.846;2023-02-17T07:30:01;5.38;;;4.97;;
75129;SDS011;63703;44.716;37.846;2023-02-17T07:32:27;5.78;;;5.28;;
75129;SDS011;63703;44.716;37.846;2023-02-17T07:34:53;6.47;;;5.38;;
75129;SDS011;63703;44.716;37.846;2023-02-17T07:37:19;2.58;;;1.60;;
75129;SDS011;63703;44.716;37.846;2023-02-17T07:39:48;5.35;;;4.82;;
75129;SDS011;63703;44.716;37.846;2023-02-17T07:42:14;4.88;;;4.38;;
75129;SDS011;63703;44.716;37.846;2023-02-17T07:44:40;5.40;;;4.57;;
75129;SDS011;63703;44.716;37.846;2023-02-17T07:47:06;4.50;;;4.10;;
75129;SDS011;63703;44.716;37.846;2023-02-17T07:49:32;5.85;;;4.65;;
75129;SDS011;63703;44.716;37.846;2023-02-17T07:51:58;6.20;;;5.70;;
75129;SDS011;63703;44.716;37.846;2023-02-17T07:54:24;5.60;;;3.83;;
75129;SDS011;63703;44.716;37.846;2023-02-17T07:56:50;10.95;;;4.47;;
75129;SDS011;63703;44.716;37.846;2023-02-17T07:59:16;4.38;;;3.97;;
75129;SDS011;63703;44.716;37.846;2023-02-17T08:01:42;2.58;;;1.92;;
75129;SDS011;63703;44.716;37.846;2023-02-17T08:04:08;3.20;;;2.38;;
75129;SDS011;63703;44.716;37.846;2023-02-17T08:06:34;4.88;;;4.32;;
75129;SDS011;63703;44.716;37.846;2023-02-17T08:09:01;4.13;;;3.72;;
75129;SDS011;63703;44.716;37.846;2023-02-17T08:16:57;4.78;;;3.97;;
75129;SDS011;63703;44.716;37.846;2023-02-17T08:19:23;3.83;;;3.53;;
75129;SDS011;63703;44.716;37.846;2023-02-17T08:21:50;5.82;;;5.20;;
75129;SDS011;63703;44.716;37.846;2023-02-17T08:24:17;5.45;;;4.00;;
75129;SDS011;63703;44.716;37.846;2023-02-17T08:26:47;5.72;;;4.72;;
75129;SDS011;63703;44.716;37.846;2023-02-17T08:29:13;6.35;;;4.30;;
75129;SDS011;63703;44.716;37.846;2023-02-17T08:31:39;5.95;;;3.83;;
75129;SDS011;63703;44.716;37.846;2023-02-17T08:34:07;4.72;;;4.13;;
75129;SDS011;63703;44.716;37.846;2023-02-17T08:36:34;5.53;;;5.03;;
75129;SDS011;63703;44.716;37.846;2023-02-17T08:39:04;3.28;;;2.90;;
75129;SDS011;63703;44.716;37.846;2023-02-17T08:41:35;3.67;;;3.25;;
75129;SDS011;63703;44.716;37.846;2023-02-17T08:44:06;4.10;;;3.70;;
75129;SDS011;63703;44.716;37.846;2023-02-17T08:46:43;5.97;;;4.82;;
75129;SDS011;63703;44.716;37.846;2023-02-17T08:49:11;5.70;;;4.32;;
75129;SDS011;63703;44.716;37.846;2023-02-17T08:51:37;4.30;;;3.13;;
75129;SDS011;63703;44.716;37.846;2023-02-17T08:54:04;4.80;;;4.15;;
75129;SDS011;63703;44.716;37.846;2023-02-17T08:56:32;6.32;;;4.47;;
75129;SDS011;63703;44.716;37.846;2023-02-17T08:58:59;6.25;;;5.65;;
75129;SDS011;63703;44.716;37.846;2023-02-17T09:01:25;5.47;;;3.65;;
75129;SDS011;63703;44.716;37.846;2023-02-17T09:03:52;6.53;;;3.65;;
75129;SDS011;63703;44.716;37.846;2023-02-17T09:06:19;4.43;;;3.58;;
75129;SDS011;63703;44.716;37.846;2023-02-17T09:08:45;6.78;;;4.05;;
75129;SDS011;63703;44.716;37.846;2023-02-17T09:11:12;7.07;;;3.22;;
75129;SDS011;63703;44.716;37.846;2023-02-17T09:13:41;5.75;;;4.20;;
75129;SDS011;63703;44.716;37.846;2023-02-17T09:16:08;6.00;;;2.92;;
75129;SDS011;63703;44.716;37.846;2023-02-17T09:18:35;7.70;;;3.83;;
75129;SDS011;63703;44.716;37.846;2023-02-17T09:21:07;4.40;;;3.83;;
75129;SDS011;63703;44.716;37.846;2023-02-17T09:23:35;8.93;;;4.28;;
75129;SDS011;63703;44.716;37.846;2023-02-17T09:26:02;5.65;;;3.83;;
75129;SDS011;63703;44.716;37.846;2023-02-17T09:28:30;6.35;;;3.30;;
75129;SDS011;63703;44.716;37.846;2023-02-17T09:30:56;8.90;;;3.40;;
75129;SDS011;63703;44.716;37.846;2023-02-17T09:33:22;8.48;;;3.60;;
75129;SDS011;63703;44.716;37.846;2023-02-17T09:35:48;9.52;;;3.88;;
75129;SDS011;63703;44.716;37.846;2023-02-17T09:38:14;4.72;;;2.97;;
75129;SDS011;63703;44.716;37.846;2023-02-17T09:40:47;9.70;;;2.97;;
75129;SDS011;63703;44.716;37.846;2023-02-17T09:43:15;6.40;;;3.58;;
75129;SDS011;63703;44.716;37.846;2023-02-17T09:45:46;8.27;;;4.57;;
75129;SDS011;63703;44.716;37.846;2023-02-17T09:48:17;6.13;;;3.25;;
75129;SDS011;63703;44.716;37.846;2023-02-17T09:50:55;8.40;;;3.28;;
75129;SDS011;63703;44.716;37.846;2023-02-17T09:54:15;8.07;;;3.25;;
75129;SDS011;63703;44.716;37.846;2023-02-17T09:56:46;8.35;;;1.13;;
75129;SDS011;63703;44.716;37.846;2023-02-17T10:02:10;10.07;;;5.10;;
75129;SDS011;63703;44.716;37.846;2023-02-17T10:04:43;9.73;;;3.72;;
75129;SDS011;63703;44.716;37.846;2023-02-17T10:07:35;9.35;;;3.47;;
75129;SDS011;63703;44.716;37.846;2023-02-17T10:10:27;8.18;;;1.67;;
75129;SDS011;63703;44.716;37.846;2023-02-17T10:12:57;9.40;;;4.80;;
75129;SDS011;63703;44.716;37.846;2023-02-17T10:15:34;11.57;;;4.15;;
75129;SDS011;63703;44.716;37.846;2023-02-17T10:23:31;10.68;;;4.45;;
75129;SDS011;63703;44.716;37.846;2023-02-17T10:31:04;14.88;;;6.07;;
75129;SDS011;63703;44.716;37.846;2023-02-17T10:33:43;8.80;;;5.03;;
75129;SDS011;63703;44.716;37.846;2023-02-17T10:36:24;8.82;;;5.30;;
75129;SDS011;63703;44.716;37.846;2023-02-17T10:39:25;12.82;;;5.25;;
75129;SDS011;63703;44.716;37.846;2023-02-17T10:42:30;5.88;;;3.92;;
75129;SDS011;63703;44.716;37.846;2023-02-17T10:47:34;10.82;;;6.68;;
75129;SDS011;63703;44.716;37.846;2023-02-17T10:50:01;10.15;;;5.43;;
75129;SDS011;63703;44.716;37.846;2023-02-17T10:52:39;6.70;;;4.53;;
75129;SDS011;63703;44.716;37.846;2023-02-17T10:55:12;12.98;;;5.95;;
75129;SDS011;63703;44.716;37.846;2023-02-17T10:57:45;10.60;;;5.72;;
75129;SDS011;63703;44.716;37.846;2023-02-17T11:00:16;11.13;;;4.78;;
75129;SDS011;63703;44.716;37.846;2023-02-17T11:02:46;6.90;;;5.18;;
75129;SDS011;63703;44.716;37.846;2023-02-17T11:05:24;17.63;;;5.63;;
75129;SDS011;63703;44.716;37.846;2023-02-17T11:07:59;11.02;;;7.32;;
75129;SDS011;63703;44.716;37.846;2023-02-17T11:10:32;7.72;;;5.07;;
75129;SDS011;63703;44.716;37.846;2023-02-17T11:13:02;16.60;;;6.57;;
75129;SDS011;63703;44.716;37.846;2023-02-17T11:15:33;11.13;;;6.30;;
75129;SDS011;63703;44.716;37.846;2023-02-17T11:18:07;15.93;;;9.30;;
75129;SDS011;63703;44.716;37.846;2023-02-17T11:20:36;18.35;;;7.53;;
75129;SDS011;63703;44.716;37.846;2023-02-17T11:25:54;13.40;;;3.97;;
75129;SDS011;63703;44.716;37.846;2023-02-17T11:28:32;11.63;;;6.68;;
75129;SDS011;63703;44.716;37.846;2023-02-17T11:30:58;14.68;;;8.15;;
75129;SDS011;63703;44.716;37.846;2023-02-17T11:35:58;16.35;;;7.95;;
75129;SDS011;63703;44.716;37.846;2023-02-17T11:38:28;16.98;;;7.45;;
75129;SDS011;63703;44.716;37.846;2023-02-17T11:41:04;15.15;;;7.45;;
75129;SDS011;63703;44.716;37.846;2023-02-17T11:43:32;16.42;;;9.75;;
75129;SDS011;63703;44.716;37.846;2023-02-17T12:08:05;24.33;;;15.23;;
75129;SDS011;63703;44.716;37.846;2023-02-17T12:11:02;18.85;;;11.77;;
75129;SDS011;63703;44.716;37.846;2023-02-17T12:13:58;26.02;;;13.10;;
75129;SDS011;63703;44.716;37.846;2023-02-17T12:16:40;22.27;;;11.40;;
75129;SDS011;63703;44.716;37.846;2023-02-17T12:19:35;17.30;;;11.57;;
75129;SDS011;63703;44.716;37.846;2023-02-17T12:35:39;18.05;;;9.52;;
75129;SDS011;63703;44.716;37.846;2023-02-17T12:38:16;25.73;;;13.55;;
75129;SDS011;63703;44.716;37.846;2023-02-17T12:40:46;21.88;;;11.90;;
75129;SDS011;63703;44.716;37.846;2023-02-17T12:46:14;19.52;;;12.60;;
75129;SDS011;63703;44.716;37.846;2023-02-17T12:48:49;19.20;;;11.70;;
75129;SDS011;63703;44.716;37.846;2023-02-17T12:51:34;20.20;;;10.90;;
75129;SDS011;63703;44.716;37.846;2023-02-17T12:59:32;23.73;;;12.90;;
75129;SDS011;63703;44.716;37.846;2023-02-17T13:02:02;20.17;;;10.93;;
75129;SDS011;63703;44.716;37.846;2023-02-17T13:04:34;18.48;;;10.18;;
75129;SDS011;63703;44.716;37.846;2023-02-17T13:07:24;21.15;;;9.38;;
75129;SDS011;63703;44.716;37.846;2023-02-17T13:10:29;14.95;;;8.45;;
75129;SDS011;63703;44.716;37.846;2023-02-17T13:13:34;14.27;;;8.75;;
75129;SDS011;63703;44.716;37.846;2023-02-17T13:16:27;18.25;;;8.85;;
75129;SDS011;63703;44.716;37.846;2023-02-17T13:18:48;14.93;;;9.05;;
75129;SDS011;63703;44.716;37.846;2023-02-17T13:23:59;10.55;;;6.15;;
75129;SDS011;63703;44.716;37.846;2023-02-17T13:26:36;16.45;;;9.77;;
75129;SDS011;63703;44.716;37.846;2023-02-17T13:31:59;16.70;;;9.32;;
75129;SDS011;63703;44.716;37.846;2023-02-17T13:37:16;12.07;;;8.10;;
75129;SDS011;63703;44.716;37.846;2023-02-17T13:39:51;17.55;;;9.30;;
75129;SDS011;63703;44.716;37.846;2023-02-17T13:45:10;10.60;;;7.80;;
75129;SDS011;63703;44.716;37.846;2023-02-17T13:47:46;10.43;;;7.28;;
75129;SDS011;63703;44.716;37.846;2023-02-17T13:53:32;11.73;;;8.75;;
75129;SDS011;63703;44.716;37.846;2023-02-17T13:56:10;13.18;;;8.60;;
75129;SDS011;63703;44.716;37.846;2023-02-17T13:58:48;12.00;;;7.30;;
75129;SDS011;63703;44.716;37.846;2023-02-17T14:01:14;13.52;;;8.05;;
75129;SDS011;63703;44.716;37.846;2023-02-17T14:06:26;12.35;;;7.45;;
75129;SDS011;63703;44.716;37.846;2023-02-17T14:08:58;15.55;;;8.60;;
75129;SDS011;63703;44.716;37.846;2023-02-17T14:11:25;13.80;;;8.40;;
75129;SDS011;63703;44.716;37.846;2023-02-17T14:13:55;12.43;;;8.18;;
75129;SDS011;63703;44.716;37.846;2023-02-17T14:21:55;11.00;;;6.80;;
75129;SDS011;63703;44.716;37.846;2023-02-17T14:24:31;12.80;;;7.40;;
75129;SDS011;63703;44.716;37.846;2023-02-17T14:27:03;11.48;;;3.90;;
75129;SDS011;63703;44.716;37.846;2023-02-17T14:29:40;11.63;;;6.25;;
75129;SDS011;63703;44.716;37.846;2023-02-17T14:32:27;11.32;;;7.88;;
75129;SDS011;63703;44.716;37.846;2023-02-17T14:37:37;12.73;;;7.05;;
75129;SDS011;63703;44.716;37.846;2023-02-17T14:40:06;8.88;;;6.78;;
75129;SDS011;63703;44.716;37.846;2023-02-17T14:42:42;12.77;;;5.90;;
75129;SDS011;63703;44.716;37.846;2023-02-17T14:45:08;9.70;;;5.53;;
75129;SDS011;63703;44.716;37.846;2023-02-17T14:47:34;8.75;;;6.32;;
75129;SDS011;63703;44.716;37.846;2023-02-17T14:49:59;12.93;;;6.13;;
75129;SDS011;63703;44.716;37.846;2023-02-17T14:52:25;12.70;;;5.43;;
75129;SDS011;63703;44.716;37.846;2023-02-17T14:54:51;8.80;;;4.85;;
75129;SDS011;63703;44.716;37.846;2023-02-17T14:57:18;19.45;;;6.03;;
75129;SDS011;63703;44.716;37.846;2023-02-17T14:59:51;9.68;;;5.78;;
75129;SDS011;63703;44.716;37.846;2023-02-17T15:02:21;12.27;;;5.72;;
75129;SDS011;63703;44.716;37.846;2023-02-17T15:04:48;8.30;;;5.25;;
75129;SDS011;63703;44.716;37.846;2023-02-17T15:07:15;12.32;;;5.57;;
75129;SDS011;63703;44.716;37.846;2023-02-17T15:09:43;9.88;;;5.20;;
75129;SDS011;63703;44.716;37.846;2023-02-17T15:12:13;10.55;;;4.47;;
75129;SDS011;63703;44.716;37.846;2023-02-17T15:14:41;12.85;;;6.22;;
75129;SDS011;63703;44.716;37.846;2023-02-17T15:17:08;13.23;;;6.88;;
75129;SDS011;63703;44.716;37.846;2023-02-17T15:19:34;9.52;;;5.85;;
75129;SDS011;63703;44.716;37.846;2023-02-17T15:22:00;10.13;;;6.05;;
75129;SDS011;63703;44.716;37.846;2023-02-17T15:24:29;8.40;;;6.93;;
75129;SDS011;63703;44.716;37.846;2023-02-17T15:26:57;10.85;;;6.68;;
75129;SDS011;63703;44.716;37.846;2023-02-17T15:29:23;12.02;;;5.50;;
75129;SDS011;63703;44.716;37.846;2023-02-17T15:31:52;9.43;;;5.38;;
75129;SDS011;63703;44.716;37.846;2023-02-17T15:34:20;8.98;;;5.20;;
75129;SDS011;63703;44.716;37.846;2023-02-17T15:36:52;8.25;;;4.97;;
75129;SDS011;63703;44.716;37.846;2023-02-17T15:39:18;13.02;;;6.75;;
75129;SDS011;63703;44.716;37.846;2023-02-17T15:41:46;12.52;;;5.60;;
75129;SDS011;63703;44.716;37.846;2023-02-17T15:44:18;7.78;;;5.07;;
75129;SDS011;63703;44.716;37.846;2023-02-17T15:46:47;12.20;;;6.85;;
75129;SDS011;63703;44.716;37.846;2023-02-17T15:49:15;11.48;;;4.82;;
75129;SDS011;63703;44.716;37.846;2023-02-17T15:51:41;9.07;;;6.00;;
75129;SDS011;63703;44.716;37.846;2023-02-17T15:54:07;8.93;;;2.95;;
75129;SDS011;63703;44.716;37.846;2023-02-17T15:56:39;12.13;;;7.75;;
75129;SDS011;63703;44.716;37.846;2023-02-17T15:59:10;8.73;;;4.25;;
75129;SDS011;63703;44.716;37.846;2023-02-17T16:01:41;10.35;;;6.18;;
75129;SDS011;63703;44.716;37.846;2023-02-17T16:04:11;11.90;;;5.97;;
75129;SDS011;63703;44.716;37.846;2023-02-17T16:06:39;11.68;;;4.93;;
75129;SDS011;63703;44.716;37.846;2023-02-17T16:09:05;9.82;;;5.32;;
75129;SDS011;63703;44.716;37.846;2023-02-17T16:11:32;9.18;;;5.18;;
75129;SDS011;63703;44.716;37.846;2023-02-17T16:13:59;8.52;;;5.15;;
75129;SDS011;63703;44.716;37.846;2023-02-17T16:16:27;11.02;;;6.55;;
75129;SDS011;63703;44.716;37.846;2023-02-17T16:18:57;11.15;;;6.22;;
75129;SDS011;63703;44.716;37.846;2023-02-17T16:21:24;10.70;;;6.20;;
75129;SDS011;63703;44.716;37.846;2023-02-17T16:23:50;9.10;;;4.78;;
75129;SDS011;63703;44.716;37.846;2023-02-17T16:28:50;10.70;;;5.47;;
75129;SDS011;63703;44.716;37.846;2023-02-17T16:31:17;13.38;;;4.85;;
75129;SDS011;63703;44.716;37.846;2023-02-17T16:33:43;9.45;;;5.75;;
75129;SDS011;63703;44.716;37.846;2023-02-17T16:36:18;8.40;;;5.63;;
75129;SDS011;63703;44.716;37.846;2023-02-17T16:38:48;10.93;;;5.75;;
75129;SDS011;63703;44.716;37.846;2023-02-17T16:41:17;8.45;;;3.42;;
75129;SDS011;63703;44.716;37.846;2023-02-17T16:43:44;10.60;;;5.63;;
75129;SDS011;63703;44.716;37.846;2023-02-17T16:46:18;13.15;;;6.38;;
75129;SDS011;63703;44.716;37.846;2023-02-17T16:48:51;19.05;;;5.60;;
75129;SDS011;63703;44.716;37.846;2023-02-17T16:51:17;11.50;;;6.40;;
75129;SDS011;63703;44.716;37.846;2023-02-17T16:53:43;13.65;;;5.70;;
75129;SDS011;63703;44.716;37.846;2023-02-17T16:56:20;11.13;;;5.72;;